Gaines Landing, Arkansas
Current Conditions -  °F | °C
As of 7:53 AM on Saturday 25 Oct 2014 (Local Time) from KGLH Reporting Station
Clear Clear  
Wind Chill: 57°   Ceiling: Unl
Heat Index: 57°   Visibility: 8mi
Dew Point: 54°   Wind: 7mph
Humidity: 89%   Direction: 250°WSW
Pressure: 30.13"   Gusts: NA
Location:  33.3324°N, 91.3183°W
Report Text: KGLH 251253Z AUTO 25006KT 8SM CLR 14/12 A3013 RMK AO2 SLP209 T01390122
Loading
Personal Weather Stations






























Interactive Weather Map New forecast layout! Learn more

10-Day Weather Forecast

Advertisements
Track Severe Weather on mobile